Time;durP1;ratioP1;P1;durP2;ratioP2;P2;SDS_P1;SDS_P2;PMS_P1;PMS_P2;Temp;Humidity;BMP_temperature;BMP_pressure;BME280_temperature;BME280_humidity;BME280_pressure;Samples;Min_cycle;Max_cycle;Signal;HPM_P1;HPM_P2
2022/11/02 00:00:43;;;;;;;2.70;1.50;;;20.70;64.40;;;;;;6295937;28;20142;-70
2022/11/02 00:03:44;;;;;;;1.35;1.08;;;20.60;64.30;;;;;;6294521;28;20154;-70
2022/11/02 00:06:45;;;;;;;1.55;1.13;;;20.60;64.30;;;;;;6295143;28;20479;-70
2022/11/02 00:09:45;;;;;;;2.03;1.52;;;20.70;65.20;;;;;;6294710;28;20035;-70
2022/11/02 00:12:46;;;;;;;1.38;0.90;;;20.70;64.40;;;;;;6294981;28;20086;-71
2022/11/02 00:15:47;;;;;;;1.73;1.50;;;20.70;64.40;;;;;;6294938;28;20016;-71
2022/11/02 00:18:52;;;;;;;2.38;1.40;;;20.60;64.30;;;;;;6294083;28;20033;-70
2022/11/02 00:21:53;;;;;;;2.08;1.50;;;20.60;64.30;;;;;;6294833;28;20422;-71
2022/11/02 00:24:54;;;;;;;1.50;1.25;;;20.60;64.20;;;;;;6294387;28;20371;-71
2022/11/02 00:27:55;;;;;;;1.45;1.25;;;20.60;64.30;;;;;;6294488;28;20337;-70
2022/11/02 00:30:56;;;;;;;1.45;1.13;;;20.60;64.20;;;;;;6294702;28;20402;-71
2022/11/02 00:33:57;;;;;;;1.67;1.05;;;20.60;64.20;;;;;;6294231;28;20032;-71
2022/11/02 00:36:57;;;;;;;1.33;1.20;;;20.70;64.40;;;;;;6294672;28;20118;-70
2022/11/02 00:39:58;;;;;;;1.55;1.17;;;20.70;64.30;;;;;;6293914;28;20537;-71
2022/11/02 00:42:58;;;;;;;1.40;1.20;;;20.70;64.40;;;;;;6293066;28;20082;-71
2022/11/02 00:46:00;;;;;;;1.52;1.30;;;20.60;64.20;;;;;;6309624;28;20032;-71
2022/11/02 00:49:00;;;;;;;1.40;1.20;;;20.70;64.30;;;;;;6294176;28;20026;-70
2022/11/02 00:52:01;;;;;;;1.63;1.40;;;20.60;64.20;;;;;;6293481;28;20060;-71
2022/11/02 00:55:02;;;;;;;1.60;1.20;;;20.60;64.20;;;;;;6293788;28;20047;-71
2022/11/02 00:58:03;;;;;;;1.00;0.90;;;20.60;64.20;;;;;;6293615;28;20046;-71
2022/11/02 01:01:05;;;;;;;1.75;1.30;;;20.60;64.20;;;;;;6293510;28;20040;-71
2022/11/02 01:04:05;;;;;;;1.50;1.17;;;20.60;64.10;;;;;;6293463;28;20020;-71
2022/11/02 01:07:06;;;;;;;1.50;1.25;;;20.60;64.20;;;;;;6293535;28;20031;-71
2022/11/02 01:10:09;;;;;;;1.10;1.00;;;20.60;64.10;;;;;;6293280;28;20103;-71
2022/11/02 01:13:10;;;;;;;1.30;1.10;;;20.60;64.10;;;;;;6293356;28;20013;-71
2022/11/02 01:16:11;;;;;;;1.92;1.15;;;20.60;64.10;;;;;;6293281;28;20112;-71
2022/11/02 01:19:13;;;;;;;1.67;1.30;;;20.60;64.20;;;;;;6292902;28;20033;-70
2022/11/02 01:22:13;;;;;;;1.40;1.10;;;20.60;64.20;;;;;;6293323;28;20020;-71
2022/11/02 01:25:14;;;;;;;1.33;1.13;;;20.70;64.30;;;;;;6292729;28;20017;-71
2022/11/02 01:28:15;;;;;;;1.20;1.10;;;20.60;64.10;;;;;;6293231;28;20027;-71
2022/11/02 01:31:15;;;;;;;1.25;1.02;;;20.60;64.10;;;;;;6292627;28;20035;-71
2022/11/02 01:34:16;;;;;;;1.20;1.00;;;20.60;64.10;;;;;;6292953;28;20032;-71
2022/11/02 01:37:16;;;;;;;1.40;1.00;;;20.60;64.10;;;;;;6292614;28;20021;-70
2022/11/02 01:40:17;;;;;;;1.40;1.20;;;20.60;64.10;;;;;;6292578;28;20921;-71
2022/11/02 01:43:32;;;;;;;1.40;1.00;;;20.60;64.10;;;;;;6292343;28;20051;-71
2022/11/02 01:46:41;;;;;;;1.10;1.00;;;20.60;64.10;;;;;;6292824;28;20027;-72
2022/11/02 01:49:46;;;;;;;0.93;0.88;;;20.60;64.10;;;;;;6292422;28;20063;-71
2022/11/02 01:52:46;;;;;;;1.98;0.90;;;20.60;64.10;;;;;;6293128;28;20037;-71
2022/11/02 01:55:49;;;;;;;1.73;1.05;;;20.60;64.10;;;;;;6292303;28;20032;-70
2022/11/02 01:58:55;;;;;;;1.50;1.10;;;20.60;64.10;;;;;;6292001;28;20036;-71
2022/11/02 02:01:56;;;;;;;1.15;1.02;;;20.60;64.10;;;;;;6292402;28;20025;-71
2022/11/02 02:05:16;;;;;;;1.55;1.20;;;20.60;64.10;;;;;;6292157;28;20069;-71
2022/11/02 02:08:19;;;;;;;1.23;0.98;;;20.60;64.10;;;;;;6292628;28;20017;-71
2022/11/02 02:11:25;;;;;;;1.33;0.98;;;20.60;64.10;;;;;;6291953;28;20020;-71
2022/11/02 02:14:26;;;;;;;1.05;0.95;;;20.60;64.10;;;;;;6292594;28;20043;-71
2022/11/02 02:17:41;;;;;;;2.17;1.10;;;20.60;64.10;;;;;;6292335;28;20482;-70
2022/11/02 02:21:01;;;;;;;1.48;1.08;;;20.60;64.10;;;;;;6292410;28;20410;-71
2022/11/02 02:24:16;;;;;;;1.20;0.82;;;20.60;64.90;;;;;;6290736;28;20137;-71
2022/11/02 02:27:34;;;;;;;1.30;0.87;;;20.60;64.10;;;;;;6292503;28;20037;-70
2022/11/02 02:30:45;;;;;;;1.13;1.02;;;20.60;64.10;;;;;;6290409;28;20270;-71
2022/11/02 02:34:14;;;;;;;1.35;1.00;;;20.60;64.00;;;;;;6291716;28;20035;-71
2022/11/02 02:37:32;;;;;;;1.13;0.98;;;20.60;64.10;;;;;;6292510;28;20076;-70
2022/11/02 02:40:46;;;;;;;1.05;0.95;;;20.60;65.00;;;;;;6291590;28;20503;-70
2022/11/02 02:43:53;;;;;;;1.50;1.02;;;20.60;64.10;;;;;;6291866;28;20065;-71
2022/11/02 02:47:03;;;;;;;1.23;0.93;;;20.60;64.10;;;;;;6266423;28;20021;-71
2022/11/02 02:50:18;;;;;;;1.55;1.05;;;20.60;64.00;;;;;;6276102;28;20047;-70
2022/11/02 02:53:24;;;;;;;1.60;1.00;;;20.60;64.00;;;;;;6291596;28;20479;-70
2022/11/02 02:56:27;;;;;;;1.27;1.05;;;20.60;64.10;;;;;;6291247;28;20021;-70
2022/11/02 02:59:32;;;;;;;2.13;1.17;;;20.60;64.00;;;;;;6291540;28;20036;-70
2022/11/02 03:02:35;;;;;;;1.00;0.90;;;20.60;64.00;;;;;;6291482;28;20130;-70
2022/11/02 03:05:36;;;;;;;0.95;0.85;;;20.60;64.00;;;;;;6292659;28;20047;-71
2022/11/02 03:08:39;;;;;;;1.73;1.00;;;20.60;64.10;;;;;;6296331;28;20012;-70
2022/11/02 03:12:12;;;;;;;1.33;1.10;;;20.60;64.10;;;;;;6291213;28;20467;-71
2022/11/02 03:15:20;;;;;;;1.33;1.00;;;20.60;64.00;;;;;;6293047;28;20519;-70
2022/11/02 03:18:24;;;;;;;1.10;1.00;;;20.60;64.00;;;;;;6296263;28;20022;-69
2022/11/02 03:21:31;;;;;;;1.73;1.10;;;20.60;64.00;;;;;;6296319;28;20036;-70
2022/11/02 03:24:59;;;;;;;1.23;0.90;;;20.60;64.00;;;;;;6295739;28;20469;-71
2022/11/02 03:28:30;;;;;;;1.52;1.00;;;20.60;63.90;;;;;;6285131;28;20067;-71
2022/11/02 03:32:09;;;;;;;4.10;1.05;;;20.60;63.60;;;;;;6291428;28;20060;-71
2022/11/02 03:35:24;;;;;;;1.15;0.90;;;20.60;63.90;;;;;;6272096;28;20517;-70
2022/11/02 03:38:39;;;;;;;1.25;1.10;;;20.60;64.00;;;;;;6295249;28;20032;-71
2022/11/02 03:41:43;;;;;;;1.05;0.90;;;20.60;63.90;;;;;;6295466;28;20508;-71
2022/11/02 03:44:46;;;;;;;1.45;0.98;;;20.60;63.80;;;;;;6295515;28;20441;-71
2022/11/02 03:47:54;;;;;;;1.30;1.08;;;20.60;64.00;;;;;;6296216;28;20025;-71
2022/11/02 03:50:58;;;;;;;2.25;1.00;;;20.60;63.60;;;;;;6294878;28;20037;-71
2022/11/02 03:54:07;;;;;;;1.33;0.80;;;20.60;63.90;;;;;;6295665;28;20107;-71
2022/11/02 03:57:14;;;;;;;1.27;1.00;;;20.60;63.70;;;;;;6294959;28;20464;-70
2022/11/02 04:00:20;;;;;;;1.65;1.10;;;20.60;63.80;;;;;;6295110;28;20130;-71
2022/11/02 04:03:23;;;;;;;1.17;0.98;;;20.60;63.90;;;;;;6295310;28;20020;-71
2022/11/02 04:06:26;;;;;;;1.00;0.80;;;20.60;63.60;;;;;;6294800;28;20023;-70
2022/11/02 04:09:27;;;;;;;3.30;0.82;;;20.60;63.70;;;;;;6294976;28;20025;-71
2022/11/02 04:15:47;;;;;;;1.58;1.00;;;20.60;63.50;;;;;;6294776;28;20040;-71
2022/11/02 04:25:25;;;;;;;2.53;0.70;;;20.60;63.70;;;;;;6294156;28;20442;-70
2022/11/02 04:28:26;;;;;;;1.48;0.93;;;20.60;63.70;;;;;;6294725;28;20036;-71
2022/11/02 04:31:27;;;;;;;1.00;0.70;;;20.60;63.70;;;;;;6294210;28;20567;-71
2022/11/02 04:34:27;;;;;;;1.02;0.90;;;20.60;63.60;;;;;;6294554;28;20020;-71
2022/11/02 04:40:48;;;;;;;1.23;0.63;;;20.60;63.60;;;;;;6294192;28;20036;-69
2022/11/02 04:43:48;;;;;;;0.75;0.70;;;20.60;63.50;;;;;;6294401;28;20021;-70
2022/11/02 04:46:50;;;;;;;1.35;0.95;;;20.60;63.40;;;;;;6294167;28;20024;-70
2022/11/02 04:49:51;;;;;;;1.05;0.75;;;20.60;63.50;;;;;;6294085;28;20040;-70
2022/11/02 04:52:56;;;;;;;1.02;0.90;;;20.60;63.70;;;;;;6293854;28;20052;-71
2022/11/02 04:55:57;;;;;;;0.95;0.75;;;20.60;63.70;;;;;;6294122;28;20063;-71
2022/11/02 04:58:59;;;;;;;1.15;0.80;;;20.60;63.40;;;;;;6293732;28;20472;-71
2022/11/02 05:01:59;;;;;;;0.70;0.70;;;20.60;63.60;;;;;;6293035;28;20483;-70
2022/11/02 05:05:00;;;;;;;2.05;0.90;;;20.60;63.30;;;;;;6293720;28;20434;-71
2022/11/02 05:08:01;;;;;;;0.80;0.60;;;20.60;63.30;;;;;;6289868;28;20118;-71
2022/11/02 05:11:01;;;;;;;1.25;0.80;;;20.60;63.20;;;;;;6293635;28;20506;-71
2022/11/02 05:14:02;;;;;;;0.98;0.73;;;20.60;63.20;;;;;;6293436;28;20029;-69
2022/11/02 05:17:02;;;;;;;0.75;0.70;;;20.60;63.20;;;;;;6293349;28;20435;-71
2022/11/02 05:20:03;;;;;;;1.02;0.60;;;20.60;63.20;;;;;;6293201;28;20029;-71
2022/11/02 05:23:05;;;;;;;1.02;0.80;;;20.60;63.20;;;;;;6293071;28;20093;-71
2022/11/02 05:26:10;;;;;;;1.60;0.88;;;20.60;63.30;;;;;;6293313;28;20021;-70
2022/11/02 05:29:10;;;;;;;1.40;0.80;;;20.60;63.10;;;;;;6292885;28;20112;-71
2022/11/02 05:32:11;;;;;;;0.80;0.80;;;20.60;63.40;;;;;;6292697;28;20033;-71
2022/11/02 05:35:12;;;;;;;1.08;0.65;;;20.60;63.10;;;;;;6292289;28;20048;-70
2022/11/02 05:38:13;;;;;;;0.93;0.73;;;20.60;63.20;;;;;;6292681;28;20020;-70
2022/11/02 05:41:13;;;;;;;1.00;0.73;;;20.60;63.10;;;;;;6292581;28;20032;-70
2022/11/02 05:44:14;;;;;;;0.90;0.70;;;20.60;63.10;;;;;;6292624;28;20032;-71
2022/11/02 05:47:14;;;;;;;0.70;0.60;;;20.60;64.00;;;;;;6292654;28;20354;-70
2022/11/02 05:50:15;;;;;;;0.90;0.73;;;20.60;63.10;;;;;;6292524;28;20076;-71
2022/11/02 05:53:16;;;;;;;1.52;0.60;;;20.60;63.00;;;;;;6292642;28;20024;-71
2022/11/02 05:56:16;;;;;;;0.60;0.57;;;20.60;63.10;;;;;;6292549;28;20033;-71
2022/11/02 05:59:17;;;;;;;1.65;0.77;;;20.60;62.90;;;;;;6292039;28;20040;-71
2022/11/02 06:02:18;;;;;;;1.58;0.80;;;20.60;63.20;;;;;;6279305;28;20506;-70
2022/11/02 06:05:18;;;;;;;1.10;0.80;;;20.60;62.90;;;;;;6292223;28;20035;-71
2022/11/02 06:08:19;;;;;;;0.80;0.70;;;20.60;63.00;;;;;;6292001;28;20487;-71
2022/11/02 06:11:19;;;;;;;0.95;0.60;;;20.60;63.90;;;;;;6292281;28;20593;-69
2022/11/02 06:14:20;;;;;;;1.35;0.60;;;20.60;62.90;;;;;;6292199;28;20036;-71
2022/11/02 06:17:20;;;;;;;1.02;0.80;;;20.60;63.10;;;;;;6292273;28;20498;-71
2022/11/02 06:20:22;;;;;;;1.00;0.70;;;20.60;63.00;;;;;;6291576;28;20482;-71
2022/11/02 06:23:23;;;;;;;0.95;0.65;;;20.60;62.90;;;;;;6291099;28;20024;-71
2022/11/02 06:26:24;;;;;;;0.75;0.70;;;20.60;62.80;;;;;;6291825;28;20028;-70
2022/11/02 06:29:25;;;;;;;0.93;0.77;;;20.60;63.00;;;;;;6290895;28;20028;-71
2022/11/02 06:32:25;;;;;;;1.55;0.80;;;20.60;62.90;;;;;;6275033;28;20543;-71
2022/11/02 06:35:26;;;;;;;1.15;0.80;;;20.60;63.10;;;;;;6288789;28;20035;-71
2022/11/02 06:38:26;;;;;;;3.60;0.93;;;20.60;63.70;;;;;;6289013;28;20028;-71
2022/11/02 06:41:27;;;;;;;0.90;0.70;;;20.60;63.40;;;;;;6293110;28;20028;-71
2022/11/02 06:44:28;;;;;;;0.55;0.50;;;20.60;63.20;;;;;;6294728;28;20021;-71
2022/11/02 06:47:31;;;;;;;2.05;0.85;;;20.60;63.40;;;;;;6269750;28;20052;-71
2022/11/02 06:50:31;;;;;;;2.10;0.90;;;20.60;63.40;;;;;;6294536;28;20056;-71
2022/11/02 06:53:32;;;;;;;1.15;0.73;;;20.60;63.40;;;;;;6295918;28;20029;-70
2022/11/02 06:56:33;;;;;;;1.85;0.98;;;20.60;63.30;;;;;;6278782;28;20519;-71
2022/11/02 06:59:33;;;;;;;2.95;0.80;;;20.60;63.30;;;;;;6291905;28;20126;-72
2022/11/02 07:02:34;;;;;;;4.05;0.90;;;20.60;63.30;;;;;;6292728;28;20033;-70
2022/11/02 07:05:36;;;;;;;3.00;1.13;;;20.60;62.90;;;;;;6294636;28;20047;-71
2022/11/02 07:08:36;;;;;;;2.10;0.93;;;20.60;63.10;;;;;;6289021;28;20301;-71
2022/11/02 07:11:37;;;;;;;2.10;0.98;;;20.60;62.70;;;;;;6295028;28;20522;-69
2022/11/02 07:14:37;;;;;;;5.00;0.90;;;20.60;62.80;;;;;;6283554;28;20056;-71
2022/11/02 07:17:39;;;;;;;2.70;1.17;;;20.60;63.10;;;;;;6283915;28;20040;-70
2022/11/02 07:20:39;;;;;;;3.75;1.10;;;20.70;63.20;;;;;;6281002;28;20024;-71
2022/11/02 07:23:40;;;;;;;4.57;1.08;;;20.70;63.10;;;;;;6296432;28;20028;-72
2022/11/02 07:26:40;;;;;;;2.00;0.73;;;20.70;63.10;;;;;;6289680;28;20067;-71
2022/11/02 07:29:41;;;;;;;1.75;0.90;;;20.70;63.10;;;;;;6296746;28;20105;-71
2022/11/02 07:32:43;;;;;;;1.77;0.98;;;20.70;63.00;;;;;;6278320;28;20403;-71
2022/11/02 07:35:44;;;;;;;3.35;1.02;;;20.60;62.90;;;;;;6272160;28;20028;-71
2022/11/02 07:38:44;;;;;;;1.48;0.70;;;20.70;63.10;;;;;;6279956;28;20539;-71
2022/11/02 07:41:45;;;;;;;1.38;0.70;;;20.70;63.00;;;;;;6297557;28;20033;-71
2022/11/02 07:44:46;;;;;;;1.85;0.75;;;20.60;62.90;;;;;;6289271;28;20032;-72
2022/11/02 07:47:47;;;;;;;3.33;0.93;;;20.70;62.90;;;;;;6296885;28;20044;-71
2022/11/02 07:50:48;;;;;;;3.47;0.75;;;20.60;62.90;;;;;;6290023;28;20056;-72
2022/11/02 07:53:49;;;;;;;2.33;0.90;;;20.70;63.00;;;;;;6296217;28;20474;-71
2022/11/02 07:56:49;;;;;;;4.32;1.00;;;20.70;62.90;;;;;;6277811;28;20029;-71
2022/11/02 07:59:50;;;;;;;1.65;0.82;;;20.70;63.10;;;;;;6281837;28;20036;-71
2022/11/02 08:02:58;;;;;;;5.15;1.13;;;20.70;62.70;;;;;;6291079;28;20021;-71
2022/11/02 08:06:02;;;;;;;2.20;0.88;;;20.70;62.40;;;;;;6285549;28;20103;-71
2022/11/02 08:09:02;;;;;;;3.42;0.90;;;20.80;62.40;;;;;;6292043;28;20507;-70
2022/11/02 08:12:03;;;;;;;1.80;0.90;;;20.80;62.20;;;;;;6290168;28;20066;-70
2022/11/02 08:15:04;;;;;;;2.38;0.98;;;20.80;62.00;;;;;;6284273;28;20025;-70
2022/11/02 08:18:10;;;;;;;1.88;0.85;;;20.80;62.10;;;;;;6286004;28;20039;-70
2022/11/02 08:21:11;;;;;;;3.25;1.10;;;20.80;61.90;;;;;;6287478;28;20154;-71
2022/11/02 08:24:12;;;;;;;2.20;0.90;;;20.80;62.00;;;;;;6295466;28;20075;-71
2022/11/02 08:27:12;;;;;;;5.10;0.98;;;20.80;62.10;;;;;;6279707;28;20033;-70
2022/11/02 08:30:13;;;;;;;1.67;0.75;;;20.80;62.30;;;;;;6281305;28;20341;-70
2022/11/02 08:33:15;;;;;;;3.90;1.00;;;20.80;62.30;;;;;;6283974;28;20025;-71
2022/11/02 08:36:16;;;;;;;2.88;1.25;;;20.80;62.40;;;;;;6288024;28;20036;-71
2022/11/02 08:39:17;;;;;;;1.35;0.70;;;20.80;62.30;;;;;;6295415;28;20112;-71
2022/11/02 08:42:17;;;;;;;32.10;2.58;;;20.80;62.50;;;;;;6291874;28;20017;-70
2022/11/02 08:45:18;;;;;;;35.10;2.75;;;20.80;63.40;;;;;;6294552;28;20452;-70
2022/11/02 08:48:18;;;;;;;21.48;1.85;;;20.70;62.50;;;;;;6275320;28;20028;-70
2022/11/02 08:51:19;;;;;;;12.55;1.95;;;20.70;62.50;;;;;;6290553;28;20054;-71
2022/11/02 08:54:20;;;;;;;16.73;1.70;;;20.80;62.60;;;;;;6288911;28;20056;-71
2022/11/02 08:57:21;;;;;;;24.13;2.17;;;20.70;62.60;;;;;;6276320;28;20103;-71
2022/11/02 09:00:24;;;;;;;10.85;1.73;;;20.80;62.70;;;;;;6294221;28;20102;-71
2022/11/02 09:03:27;;;;;;;11.57;1.70;;;20.70;62.50;;;;;;6293938;28;20021;-72
2022/11/02 09:06:27;;;;;;;13.65;1.65;;;20.70;62.70;;;;;;6291894;28;20035;-71
2022/11/02 09:09:28;;;;;;;12.55;1.88;;;20.70;62.70;;;;;;6294846;28;20036;-71
2022/11/02 09:12:29;;;;;;;8.05;1.58;;;20.70;62.50;;;;;;6292952;28;20043;-71
2022/11/02 09:15:31;;;;;;;17.90;2.30;;;20.80;62.60;;;;;;6284726;28;20028;-71
2022/11/02 09:18:32;;;;;;;33.92;3.53;;;20.80;62.50;;;;;;6292232;28;20078;-71
2022/11/02 09:21:32;;;;;;;23.90;2.63;;;20.80;62.60;;;;;;6292608;28;20024;-71
2022/11/02 09:24:33;;;;;;;35.13;2.80;;;20.80;62.60;;;;;;6292985;28;20054;-71
2022/11/02 09:27:33;;;;;;;21.02;2.28;;;20.80;62.60;;;;;;6284153;28;20032;-71
2022/11/02 09:30:34;;;;;;;24.20;2.78;;;20.80;62.60;;;;;;6292484;28;20553;-70
2022/11/02 09:33:35;;;;;;;37.65;3.33;;;20.80;62.60;;;;;;6292165;28;20123;-70
2022/11/02 09:36:35;;;;;;;25.42;2.70;;;20.80;62.60;;;;;;6284415;28;20115;-71
2022/11/02 09:39:36;;;;;;;21.65;2.78;;;20.70;62.50;;;;;;6292906;28;20052;-70
2022/11/02 09:42:49;;;;;;;19.98;3.13;;;20.80;62.60;;;;;;6292631;28;20862;-71
2022/11/02 09:46:06;;;;;;;29.90;2.70;;;20.80;62.70;;;;;;6282477;28;20027;-70
2022/11/02 09:49:14;;;;;;;30.95;2.65;;;20.80;62.70;;;;;;6289487;28;20265;-70
2022/11/02 09:52:27;;;;;;;16.02;2.45;;;20.80;62.70;;;;;;6291489;28;20056;-71
2022/11/02 09:55:35;;;;;;;11.50;1.98;;;20.80;62.70;;;;;;6291416;28;20032;-70
2022/11/02 09:58:39;;;;;;;28.83;2.50;;;20.80;62.70;;;;;;6291811;28;20495;-70
2022/11/02 10:02:01;;;;;;;24.42;2.20;;;20.70;62.70;;;;;;6291927;28;20024;-70
2022/11/02 10:05:17;;;;;;;15.75;2.28;;;20.80;62.70;;;;;;6282055;28;20050;-70
2022/11/02 10:08:21;;;;;;;17.00;2.03;;;20.70;62.70;;;;;;6293400;28;20499;-71
2022/11/02 10:11:41;;;;;;;14.90;2.55;;;20.70;62.70;;;;;;6293109;28;20021;-71
2022/11/02 10:15:13;;;;;;;12.95;2.65;;;20.80;62.60;;;;;;6293548;28;20036;-71
2022/11/02 10:18:19;;;;;;;15.32;2.35;;;20.70;62.70;;;;;;6291829;28;20041;-71
2022/11/02 10:21:25;;;;;;;12.50;2.25;;;20.80;62.90;;;;;;6293678;28;20040;-71
2022/11/02 10:24:28;;;;;;;13.63;2.10;;;20.70;62.90;;;;;;6269538;28;20094;-71
2022/11/02 10:27:35;;;;;;;8.35;1.60;;;20.70;63.00;;;;;;6282082;28;20054;-70
2022/11/02 10:30:37;;;;;;;14.85;2.05;;;20.70;63.10;;;;;;6293538;28;20384;-70
2022/11/02 10:33:37;;;;;;;11.93;1.95;;;20.70;63.10;;;;;;6293011;28;20483;-70
2022/11/02 10:36:53;;;;;;;8.90;1.83;;;20.70;63.10;;;;;;6293358;28;20045;-70
2022/11/02 10:40:12;;;;;;;9.02;1.73;;;20.70;63.20;;;;;;6268458;28;20040;-70
2022/11/02 10:43:18;;;;;;;13.40;1.80;;;20.70;63.20;;;;;;6286160;28;20463;-71
2022/11/02 10:46:44;;;;;;;7.75;1.85;;;20.70;63.30;;;;;;6292996;28;20048;-70
2022/11/02 10:49:50;;;;;;;12.88;2.17;;;20.70;63.30;;;;;;6276518;28;20064;-70
2022/11/02 10:52:50;;;;;;;5.68;1.30;;;20.70;63.40;;;;;;6276790;28;20021;-71
2022/11/02 10:56:02;;;;;;;8.60;1.60;;;20.70;63.40;;;;;;6292898;28;20024;-71
2022/11/02 10:59:12;;;;;;;12.10;1.85;;;20.70;63.50;;;;;;6293492;28;20059;-71
2022/11/02 11:02:14;;;;;;;5.47;1.35;;;20.70;63.50;;;;;;6293707;28;20028;-70
2022/11/02 11:05:18;;;;;;;3.63;1.02;;;20.70;63.40;;;;;;6293328;28;20498;-70
2022/11/02 11:08:30;;;;;;;8.00;1.73;;;20.70;63.40;;;;;;6293495;28;20051;-70
2022/11/02 11:11:34;;;;;;;6.70;1.90;;;20.70;63.50;;;;;;6293382;28;20387;-71
2022/11/02 11:14:43;;;;;;;3.85;1.40;;;20.70;63.50;;;;;;6293498;28;20429;-70
2022/11/02 11:17:44;;;;;;;5.85;1.77;;;20.70;63.50;;;;;;6293448;28;20498;-71
2022/11/02 11:20:46;;;;;;;9.40;1.83;;;20.70;63.40;;;;;;6293258;28;20035;-70
2022/11/02 11:23:46;;;;;;;7.70;1.38;;;20.70;63.50;;;;;;6293646;28;20506;-71
2022/11/02 11:27:14;;;;;;;8.20;1.60;;;20.70;63.50;;;;;;6295155;28;20107;-70
2022/11/02 11:30:25;;;;;;;5.25;1.10;;;20.70;63.50;;;;;;6297828;28;20021;-71
2022/11/02 11:33:26;;;;;;;7.05;1.40;;;20.60;63.30;;;;;;6297874;28;20060;-71
2022/11/02 11:36:32;;;;;;;3.92;1.30;;;20.70;63.50;;;;;;6297846;28;20028;-71
2022/11/02 11:39:34;;;;;;;5.57;1.30;;;20.70;63.50;;;;;;6313665;28;20071;-71
2022/11/02 11:42:36;;;;;;;4.32;1.15;;;20.70;63.50;;;;;;6298125;28;20647;-71
2022/11/02 11:45:37;;;;;;;5.18;1.73;;;20.70;63.50;;;;;;6298224;28;20116;-70
2022/11/02 11:48:43;;;;;;;4.53;1.27;;;20.60;63.50;;;;;;6297822;28;20021;-70
2022/11/02 11:51:50;;;;;;;4.68;1.02;;;20.70;63.60;;;;;;6297061;28;20076;-71
2022/11/02 11:54:56;;;;;;;3.00;0.98;;;20.70;63.60;;;;;;6297106;28;20025;-71
2022/11/02 11:58:35;;;;;;;3.95;0.90;;;20.70;63.50;;;;;;6296951;28;20021;-71
2022/11/02 12:01:39;;;;;;;7.47;2.00;;;20.70;63.60;;;;;;6266092;28;20044;-71
2022/11/02 12:04:39;;;;;;;3.30;1.00;;;20.70;63.50;;;;;;6285163;28;20356;-70
2022/11/02 12:08:06;;;;;;;2.92;1.10;;;20.60;63.40;;;;;;6296875;28;20095;-71
2022/11/02 12:11:22;;;;;;;3.97;1.38;;;20.70;63.50;;;;;;6293306;28;20124;-71
2022/11/02 12:14:43;;;;;;;3.10;1.02;;;20.70;63.40;;;;;;6297521;28;20035;-71
2022/11/02 12:18:13;;;;;;;6.25;1.50;;;20.70;64.10;;;;;;6279542;28;20048;-70
2022/11/02 12:21:32;;;;;;;2.97;1.10;;;20.60;63.50;;;;;;6294127;28;20455;-69
2022/11/02 12:24:40;;;;;;;2.95;1.08;;;20.60;63.50;;;;;;6292872;28;20400;-71
2022/11/02 12:27:56;;;;;;;5.25;1.20;;;20.70;63.60;;;;;;6294526;28;20430;-71
2022/11/02 12:31:23;;;;;;;3.70;1.25;;;20.60;63.50;;;;;;6295608;28;20024;-71
2022/11/02 12:34:23;;;;;;;3.95;1.20;;;20.60;63.50;;;;;;6276998;28;20028;-70
2022/11/02 12:37:30;;;;;;;4.53;0.93;;;20.60;63.50;;;;;;6294756;28;20378;-70
2022/11/02 12:40:56;;;;;;;1.67;0.80;;;20.60;63.50;;;;;;6294532;28;20054;-71
2022/11/02 12:44:22;;;;;;;5.95;1.13;;;20.70;63.60;;;;;;6294642;28;20020;-70
2022/11/02 12:47:23;;;;;;;2.95;1.10;;;20.60;63.50;;;;;;6285604;28;20025;-71
2022/11/02 12:50:32;;;;;;;4.75;1.40;;;20.60;63.50;;;;;;6294823;28;20114;-70
2022/11/02 12:53:54;;;;;;;1.92;0.77;;;20.60;63.60;;;;;;6294794;28;20060;-71
2022/11/02 12:56:55;;;;;;;4.28;0.90;;;20.60;63.50;;;;;;6293893;28;20495;-70
2022/11/02 13:00:07;;;;;;;3.00;1.05;;;20.60;63.60;;;;;;6293987;28;20032;-70
2022/11/02 13:03:41;;;;;;;2.65;0.73;;;20.60;63.60;;;;;;6294183;28;20020;-71
2022/11/02 13:06:48;;;;;;;2.90;1.20;;;20.60;63.70;;;;;;6292187;28;20514;-70
2022/11/02 13:10:00;;;;;;;;;;;20.60;63.60;;;;;;6293805;28;20361;-71
2022/11/02 13:13:03;;;;;;;1.73;0.90;;;20.60;63.60;;;;;;6277382;28;19912;-71
2022/11/02 13:16:08;;;;;;;2.10;0.80;;;20.60;63.70;;;;;;6293514;28;20039;-71
2022/11/02 13:19:18;;;;;;;2.88;1.13;;;20.60;63.60;;;;;;6292869;28;20044;-70
2022/11/02 13:22:24;;;;;;;3.35;0.52;;;20.60;63.70;;;;;;6285739;28;20028;-71
2022/11/02 13:25:34;;;;;;;2.28;1.05;;;20.60;63.70;;;;;;6292568;28;20055;-71
2022/11/02 13:28:47;;;;;;;3.88;1.10;;;20.60;63.70;;;;;;6293343;28;20070;-71
2022/11/02 13:31:59;;;;;;;1.98;0.90;;;20.60;63.70;;;;;;6293354;28;20028;-70
2022/11/02 13:35:13;;;;;;;2.00;0.90;;;20.60;63.80;;;;;;6293668;28;20029;-71
2022/11/02 13:38:30;;;;;;;3.75;0.70;;;20.60;63.80;;;;;;6293812;28;20031;-71
2022/11/02 13:41:34;;;;;;;2.30;0.80;;;20.60;64.60;;;;;;6293015;28;20123;-70
2022/11/02 13:45:12;;;;;;;3.35;0.82;;;20.60;63.70;;;;;;6293913;28;20028;-71
2022/11/02 13:48:24;;;;;;;1.50;0.77;;;20.60;63.80;;;;;;6272413;28;20028;-70
2022/11/02 13:51:39;;;;;;;1.83;0.90;;;20.60;63.80;;;;;;6292798;28;20052;-71
2022/11/02 13:54:53;;;;;;;1.75;0.93;;;20.60;63.80;;;;;;6293935;28;20024;-70
2022/11/02 13:57:58;;;;;;;2.20;0.88;;;20.60;63.90;;;;;;6292514;28;20354;-72
2022/11/02 14:01:00;;;;;;;;;;;20.60;64.70;;;;;;6293261;28;20025;-69
2022/11/02 14:04:11;;;;;;;2.03;1.00;;;20.60;63.70;;;;;;6293280;28;19959;-71
2022/11/02 14:07:32;;;;;;;2.28;0.70;;;20.60;63.80;;;;;;6293073;28;20022;-70
2022/11/02 14:10:37;;;;;;;2.03;0.85;;;20.60;63.90;;;;;;6291556;28;20028;-70
2022/11/02 14:13:53;;;;;;;2.10;0.73;;;20.60;63.80;;;;;;6292569;28;20085;-70
2022/11/02 14:16:53;;;;;;;2.28;0.90;;;20.60;63.40;;;;;;6293309;28;20033;-71
2022/11/02 14:19:55;;;;;;;3.17;0.90;;;20.60;63.60;;;;;;6291362;28;20071;-70
2022/11/02 14:23:08;;;;;;;2.20;0.80;;;20.60;63.70;;;;;;6292083;28;20059;-71
2022/11/02 14:26:30;;;;;;;1.77;0.85;;;20.60;63.90;;;;;;6292307;28;20032;-70
2022/11/02 14:29:45;;;;;;;3.03;0.80;;;20.60;63.80;;;;;;6285052;28;20017;-71
2022/11/02 14:33:04;;;;;;;1.95;0.80;;;20.60;63.90;;;;;;6292312;28;20051;-71
2022/11/02 14:36:09;;;;;;;3.22;0.75;;;20.60;63.80;;;;;;6292338;28;20031;-72
2022/11/02 14:39:36;;;;;;;;;;;20.60;63.70;;;;;;6292593;28;20036;-70
2022/11/02 14:42:54;;;;;;;5.22;0.75;;;20.60;63.60;;;;;;6283643;28;20016;-71
2022/11/02 14:46:06;;;;;;;1.95;1.00;;;20.60;63.70;;;;;;6292072;28;20074;-71
2022/11/02 14:49:21;;;;;;;1.73;0.80;;;20.60;63.70;;;;;;6291549;28;20021;-71
2022/11/02 14:52:27;;;;;;;1.27;0.70;;;20.60;63.80;;;;;;6292207;28;20045;-71
2022/11/02 14:55:32;;;;;;;2.28;0.90;;;20.60;63.80;;;;;;6291702;28;20267;-71
2022/11/02 14:58:46;;;;;;;2.85;0.95;;;20.60;63.80;;;;;;6291437;28;20531;-70
2022/11/02 15:01:57;;;;;;;4.28;0.77;;;20.60;63.70;;;;;;6293123;28;20047;-70
2022/11/02 15:05:01;;;;;;;2.03;0.90;;;20.60;63.80;;;;;;6296934;28;20028;-71
2022/11/02 15:08:30;;;;;;;1.90;0.75;;;20.60;63.70;;;;;;6296108;28;20032;-71
2022/11/02 15:11:56;;;;;;;3.33;0.80;;;20.60;63.80;;;;;;6294252;28;20036;-71
2022/11/02 15:15:21;;;;;;;2.65;0.82;;;20.60;63.70;;;;;;6296248;28;20113;-70
2022/11/02 15:18:35;;;;;;;4.17;0.93;;;20.60;63.70;;;;;;6296169;28;20025;-71
2022/11/02 15:21:36;;;;;;;3.67;0.70;;;20.60;63.80;;;;;;6296367;28;20060;-71
2022/11/02 15:24:37;;;;;;;1.45;0.63;;;20.60;63.80;;;;;;6295756;28;20032;-71
2022/11/02 15:27:40;;;;;;;5.88;0.65;;;20.60;63.80;;;;;;6296156;28;20024;-71
2022/11/02 15:30:48;;;;;;;1.95;0.80;;;20.60;63.70;;;;;;6295635;28;20107;-71
2022/11/02 15:33:53;;;;;;;3.60;0.70;;;20.60;64.60;;;;;;6295899;28;20029;-71
2022/11/02 15:36:56;;;;;;;4.28;1.05;;;20.60;63.70;;;;;;6296198;28;20510;-71
2022/11/02 15:39:59;;;;;;;1.10;0.68;;;20.60;63.70;;;;;;6295851;28;20037;-70
2022/11/02 15:43:55;;;;;;;2.13;0.70;;;20.60;63.70;;;;;;6281842;28;20399;-71
2022/11/02 15:47:17;;;;;;;3.40;0.80;;;20.60;63.70;;;;;;6283074;28;20037;-71
2022/11/02 15:50:22;;;;;;;2.40;1.00;;;20.60;63.80;;;;;;6294921;28;20045;-71
2022/11/02 15:53:58;;;;;;;2.17;1.00;;;20.60;63.70;;;;;;6295925;28;20558;-71
2022/11/02 15:57:36;;;;;;;3.53;1.17;;;20.60;63.70;;;;;;6294142;28;20102;-71
2022/11/02 16:00:37;;;;;;;1.58;1.00;;;20.60;63.70;;;;;;6272295;28;20165;-70
2022/11/02 16:03:43;;;;;;;8.27;0.88;;;20.60;63.70;;;;;;6296115;28;20028;-71
2022/11/02 16:06:45;;;;;;;1.45;0.68;;;20.60;63.70;;;;;;6293152;28;20033;-71
2022/11/02 16:09:46;;;;;;;1.38;0.70;;;20.60;63.70;;;;;;6295339;28;20059;-71
2022/11/02 16:13:18;;;;;;;3.75;1.00;;;20.60;63.70;;;;;;6291020;28;20107;-71
2022/11/02 16:16:19;;;;;;;3.22;0.80;;;20.60;63.70;;;;;;6295672;28;20111;-71
2022/11/02 16:19:21;;;;;;;1.90;0.90;;;20.60;63.70;;;;;;6289745;28;20437;-71
2022/11/02 16:22:24;;;;;;;4.68;0.98;;;20.60;63.70;;;;;;6295145;28;20024;-71